Terminal Aerodrome Forecast
Issued by NWS

Home | Current Version | Previous Version | Text Only | Print | Product List | Glossary On
Versions: 1 2 3 4 5 6 7 8 9 10 11 12 13 14 15 16 17 18 19 20 21 22 23 24 25 26
000
FTUS45 KGGW 230520
TAFOLF
TAF
KOLF 230520Z 2306/2406 VRB06KT 6SM HZ SCT110
     FM231500 26011KT P6SM FEW190
     FM231900 27019G27KT P6SM FEW140
     FM240300 28011KT P6SM SCT070=

USA.gov is the U.S. government's official web portal to all federal, state and local government web resources and services.